createdAt,value
2022-11-05T00:01:25.003Z,5.70
2022-11-05T00:04:11.220Z,5.60
2022-11-05T00:06:59.809Z,5.60
2022-11-05T00:09:30.404Z,5.50
2022-11-05T00:12:30.049Z,5.60
2022-11-05T00:15:17.481Z,5.40
2022-11-05T00:17:46.589Z,5.30
2022-11-05T00:20:14.393Z,5.30
2022-11-05T00:23:00.606Z,5.30
2022-11-05T00:25:30.124Z,5.20
2022-11-05T00:28:04.065Z,5.30
2022-11-05T00:30:31.986Z,5.30
2022-11-05T00:33:03.670Z,5.20
2022-11-05T00:35:31.424Z,5.20
2022-11-05T00:37:58.977Z,5.10
2022-11-05T00:40:26.616Z,5.10
2022-11-05T00:43:12.998Z,5.00
2022-11-05T00:45:41.229Z,5.00
2022-11-05T00:48:27.440Z,5.00
2022-11-05T00:50:55.265Z,5.00
2022-11-05T00:53:23.065Z,4.90
2022-11-05T00:55:50.696Z,4.90
2022-11-05T00:58:23.864Z,4.80
2022-11-05T01:00:59.826Z,4.80
2022-11-05T01:03:39.233Z,4.90
2022-11-05T01:06:14.692Z,5.00
2022-11-05T01:08:46.707Z,4.90
2022-11-05T01:11:35.444Z,5.00
2022-11-05T01:14:13.506Z,4.90
2022-11-05T01:16:42.326Z,5.00
2022-11-05T01:19:19.241Z,4.90
2022-11-05T01:21:47.551Z,5.00
2022-11-05T01:24:15.075Z,5.10
2022-11-05T01:26:42.783Z,5.10
2022-11-05T01:29:11.936Z,5.00
2022-11-05T01:31:39.726Z,5.00
2022-11-05T01:34:07.315Z,5.20
2022-11-05T01:36:37.870Z,5.20
2022-11-05T01:39:18.727Z,5.20
2022-11-05T01:41:50.381Z,5.20
2022-11-05T01:45:29.480Z,5.30
2022-11-05T01:48:50.317Z,5.30
2022-11-05T01:51:27.655Z,5.30
2022-11-05T01:54:08.942Z,5.20
2022-11-05T01:56:54.508Z,5.20
2022-11-05T01:59:49.678Z,5.20
2022-11-05T02:02:19.330Z,5.20
2022-11-05T02:05:01.125Z,5.30
2022-11-05T02:07:31.112Z,5.30
2022-11-05T02:10:18.121Z,5.30
2022-11-05T02:12:53.821Z,5.20
2022-11-05T02:16:32.899Z,5.10
2022-11-05T02:19:58.390Z,5.00
2022-11-05T02:23:10.966Z,5.10
2022-11-05T02:26:50.172Z,5.00
2022-11-05T02:30:06.958Z,4.90
2022-11-05T02:33:06.691Z,4.80
2022-11-05T02:36:02.341Z,4.80
2022-11-05T02:39:08.034Z,4.80
2022-11-05T02:42:21.666Z,4.80
2022-11-05T02:46:12.759Z,4.60
2022-11-05T02:49:47.962Z,4.60
2022-11-05T02:53:01.853Z,4.70
2022-11-05T02:55:49.699Z,4.70
2022-11-05T02:58:17.582Z,4.60
2022-11-05T03:00:56.038Z,4.60
2022-11-05T03:03:43.117Z,4.70
2022-11-05T03:06:51.672Z,4.70
2022-11-05T03:10:33.357Z,4.60
2022-11-05T03:13:48.340Z,4.50
2022-11-05T03:16:39.139Z,4.40
2022-11-05T03:19:31.878Z,4.20
2022-11-05T03:22:32.668Z,4.10
2022-11-05T03:25:14.344Z,4.10
2022-11-05T03:27:54.423Z,4.10
2022-11-05T03:30:22.862Z,4.00
2022-11-05T03:33:05.906Z,4.10
2022-11-05T03:35:47.245Z,4.00
2022-11-05T03:38:28.939Z,3.90
2022-11-05T03:41:08.753Z,3.90
2022-11-05T03:43:47.081Z,3.90
2022-11-05T03:46:48.108Z,4.00
2022-11-05T03:49:33.056Z,4.00
2022-11-05T03:52:17.497Z,3.90
2022-11-05T03:54:47.179Z,3.90
2022-11-05T03:57:35.607Z,4.00
2022-11-05T04:00:10.972Z,4.10
2022-11-05T04:02:42.736Z,4.30
2022-11-05T04:05:12.037Z,4.40
2022-11-05T04:07:58.466Z,4.60
2022-11-05T04:11:05.193Z,4.50
2022-11-05T04:13:34.199Z,4.50
2022-11-05T04:16:19.910Z,4.40
2022-11-05T04:18:47.723Z,4.30
2022-11-05T04:21:34.699Z,4.40
2022-11-05T04:24:09.665Z,4.30
2022-11-05T04:26:44.326Z,4.40
2022-11-05T04:29:30.935Z,4.50
2022-11-05T04:31:58.762Z,4.40
2022-11-05T04:34:26.508Z,4.40
2022-11-05T04:36:54.112Z,4.40
2022-11-05T04:39:22.834Z,4.40
2022-11-05T04:41:50.541Z,4.40
2022-11-05T04:44:18.251Z,4.40
2022-11-05T04:46:46.172Z,4.30
2022-11-05T04:49:13.862Z,4.30
2022-11-05T04:51:41.445Z,4.30
2022-11-05T04:54:08.970Z,4.30
2022-11-05T04:56:36.638Z,4.20
2022-11-05T04:59:04.701Z,4.30
2022-11-05T05:01:32.489Z,4.30
2022-11-05T05:04:00.135Z,4.30
2022-11-05T05:06:27.964Z,4.20
2022-11-05T05:08:55.495Z,4.30
2022-11-05T05:11:23.601Z,4.20
2022-11-05T05:13:51.399Z,4.20
2022-11-05T05:16:28.124Z,4.30
2022-11-05T05:18:56.419Z,4.40
2022-11-05T05:21:40.505Z,4.30
2022-11-05T05:24:19.111Z,4.20
2022-11-05T05:26:51.648Z,4.20
2022-11-05T05:29:19.560Z,4.20
2022-11-05T05:31:47.135Z,4.10
2022-11-05T05:34:15.655Z,4.00
2022-11-05T05:36:43.322Z,3.90
2022-11-05T05:39:11.318Z,3.90
2022-11-05T05:41:39.070Z,4.00
2022-11-05T05:44:07.143Z,4.20
2022-11-05T05:46:35.206Z,4.20
2022-11-05T05:49:05.508Z,4.20
2022-11-05T05:51:37.318Z,4.10
2022-11-05T05:54:05.382Z,4.30
2022-11-05T05:56:32.922Z,4.20
2022-11-05T05:59:00.552Z,4.20
2022-11-05T06:01:28.280Z,4.10
2022-11-05T06:03:56.031Z,4.10
2022-11-05T06:06:23.596Z,4.10
2022-11-05T06:08:51.210Z,4.00
2022-11-05T06:11:19.092Z,4.00
2022-11-05T06:13:46.772Z,3.90
2022-11-05T06:16:14.664Z,3.90
2022-11-05T06:18:42.792Z,3.90
2022-11-05T06:21:16.699Z,3.90
2022-11-05T06:23:48.441Z,3.90
2022-11-05T06:26:19.204Z,3.90
2022-11-05T06:28:47.472Z,3.80
2022-11-05T06:31:16.007Z,3.90
2022-11-05T06:33:43.562Z,3.90
2022-11-05T06:36:18.503Z,4.00
2022-11-05T06:38:46.985Z,4.00
2022-11-05T06:41:15.129Z,4.00
2022-11-05T06:43:43.068Z,3.90
2022-11-05T06:46:12.392Z,3.90
2022-11-05T06:48:40.322Z,4.00
2022-11-05T06:51:09.668Z,4.00
2022-11-05T06:53:37.405Z,4.10
2022-11-05T06:56:08.068Z,4.10
2022-11-05T06:58:36.240Z,4.00
2022-11-05T07:01:10.060Z,4.00
2022-11-05T07:03:39.433Z,4.10
2022-11-05T07:06:08.696Z,4.10
2022-11-05T07:08:38.528Z,4.10
2022-11-05T07:11:06.803Z,4.30
2022-11-05T07:13:34.600Z,4.30
2022-11-05T07:16:08.624Z,4.40
2022-11-05T07:18:37.109Z,4.50
2022-11-05T07:21:05.198Z,4.60
2022-11-05T07:23:32.831Z,4.70
2022-11-05T07:26:00.628Z,4.80
2022-11-05T07:28:28.331Z,4.90
2022-11-05T07:30:59.227Z,5.00
2022-11-05T07:33:26.850Z,5.10
2022-11-05T07:35:58.229Z,5.20
2022-11-05T07:38:26.778Z,5.30
2022-11-05T07:40:54.685Z,5.30
2022-11-05T07:43:22.233Z,5.30
2022-11-05T07:45:49.850Z,5.40
2022-11-05T07:48:17.490Z,5.50
2022-11-05T07:50:45.104Z,5.50
2022-11-05T07:53:15.183Z,5.70
2022-11-05T07:55:46.055Z,5.70
2022-11-05T07:58:14.531Z,6.00
2022-11-05T08:00:44.059Z,6.20
2022-11-05T08:03:28.240Z,6.40
2022-11-05T08:05:58.811Z,6.60
2022-11-05T08:08:26.801Z,6.90
2022-11-05T08:10:54.396Z,7.20
2022-11-05T08:13:21.979Z,7.50
2022-11-05T08:15:49.498Z,7.70
2022-11-05T08:18:18.867Z,7.80
2022-11-05T08:20:48.142Z,8.00
2022-11-05T08:23:16.337Z,8.00
2022-11-05T08:25:44.122Z,8.00
2022-11-05T08:28:13.931Z,8.20
2022-11-05T08:30:43.612Z,8.20
2022-11-05T08:33:15.036Z,8.20
2022-11-05T08:35:43.232Z,8.40
2022-11-05T08:38:15.283Z,8.10
2022-11-05T08:40:53.446Z,8.10
2022-11-05T08:43:21.722Z,8.20
2022-11-05T08:45:50.052Z,8.40
2022-11-05T08:48:19.720Z,8.80
2022-11-05T08:50:49.804Z,9.10
2022-11-05T08:53:17.786Z,9.00
2022-11-05T08:55:47.740Z,9.30
2022-11-05T08:58:18.433Z,9.50
2022-11-05T09:00:50.380Z,9.70
2022-11-05T09:03:19.117Z,9.60
2022-11-05T09:05:47.383Z,9.30
2022-11-05T09:08:19.621Z,9.10
2022-11-05T09:10:49.920Z,9.10
2022-11-05T09:13:20.071Z,9.00
2022-11-05T09:15:51.869Z,8.70
2022-11-05T09:18:21.222Z,8.70
2022-11-05T09:20:49.043Z,8.70
2022-11-05T09:23:17.205Z,8.70
2022-11-05T09:25:45.440Z,8.70
2022-11-05T09:28:22.888Z,8.70
2022-11-05T09:30:53.037Z,8.80
2022-11-05T09:33:25.865Z,8.80
2022-11-05T09:35:54.208Z,8.90
2022-11-05T09:38:22.140Z,8.90
2022-11-05T09:41:04.146Z,9.00
2022-11-05T09:43:58.719Z,9.00
2022-11-05T09:46:58.566Z,9.10
2022-11-05T09:49:44.612Z,9.00
2022-11-05T09:52:29.910Z,9.00
2022-11-05T09:54:58.751Z,9.00
2022-11-05T09:57:59.517Z,9.20
2022-11-05T10:00:30.685Z,9.30
2022-11-05T10:03:14.520Z,9.30
2022-11-05T10:05:43.464Z,9.40
2022-11-05T10:09:12.477Z,9.40
2022-11-05T10:11:54.749Z,9.40
2022-11-05T10:14:39.261Z,9.50
2022-11-05T10:17:29.131Z,9.50
2022-11-05T10:20:37.418Z,9.60
2022-11-05T10:23:23.452Z,9.60
2022-11-05T10:26:14.675Z,9.70
2022-11-05T10:28:42.570Z,9.70
2022-11-05T10:31:21.141Z,9.80
2022-11-05T10:34:06.952Z,9.90
2022-11-05T10:36:38.648Z,10.00
2022-11-05T10:39:20.496Z,10.10
2022-11-05T10:42:46.904Z,10.10
2022-11-05T10:46:06.040Z,10.10
2022-11-05T10:49:14.859Z,10.10
2022-11-05T10:51:47.193Z,10.30
2022-11-05T10:54:24.904Z,10.50
2022-11-05T10:56:53.541Z,10.50
2022-11-05T10:59:30.142Z,10.50
2022-11-05T11:02:26.536Z,10.60
2022-11-05T11:04:58.431Z,10.70
2022-11-05T11:07:27.644Z,10.80
2022-11-05T11:09:55.557Z,11.00
2022-11-05T11:12:42.820Z,11.20
2022-11-05T11:15:20.348Z,11.10
2022-11-05T11:17:48.487Z,11.40
2022-11-05T11:20:43.494Z,11.50
2022-11-05T11:23:17.753Z,11.60
2022-11-05T11:26:03.838Z,11.60
2022-11-05T11:28:54.134Z,11.60
2022-11-05T11:31:29.893Z,11.50
2022-11-05T11:34:29.157Z,11.80
2022-11-05T11:37:31.134Z,11.90
2022-11-05T11:40:19.447Z,11.70
2022-11-05T11:43:01.195Z,11.80
2022-11-05T11:45:44.912Z,11.60
2022-11-05T11:48:27.808Z,11.50
2022-11-05T11:50:59.542Z,11.60
2022-11-05T11:53:36.093Z,11.60
2022-11-05T11:56:20.071Z,11.50
2022-11-05T11:58:55.656Z,11.40
2022-11-05T12:01:48.590Z,11.30
2022-11-05T12:05:11.932Z,11.20
2022-11-05T12:08:25.168Z,11.20
2022-11-05T12:11:25.608Z,11.20
2022-11-05T12:14:45.206Z,11.30
2022-11-05T12:17:55.382Z,11.30
2022-11-05T12:21:01.567Z,11.40
2022-11-05T12:24:18.824Z,11.70
2022-11-05T12:27:16.240Z,11.80
2022-11-05T12:30:14.390Z,11.90
2022-11-05T12:33:38.634Z,11.90
2022-11-05T12:37:23.902Z,12.00
2022-11-05T12:40:47.491Z,11.80
2022-11-05T12:43:54.527Z,11.80
2022-11-05T12:46:51.608Z,12.10
2022-11-05T12:50:02.700Z,12.00
2022-11-05T12:52:57.540Z,12.00
2022-11-05T12:55:37.759Z,11.90
2022-11-05T12:58:40.742Z,11.70
2022-11-05T13:01:39.982Z,11.80
2022-11-05T13:05:01.564Z,11.80
2022-11-05T13:07:40.104Z,11.80
2022-11-05T13:10:42.880Z,11.90
2022-11-05T13:13:49.691Z,11.90
2022-11-05T13:16:46.419Z,12.00
2022-11-05T13:19:28.522Z,12.10
2022-11-05T13:22:38.124Z,11.90
2022-11-05T13:25:33.684Z,11.90
2022-11-05T13:28:51.863Z,11.90
2022-11-05T13:31:40.227Z,11.70
2022-11-05T13:34:13.519Z,11.60
2022-11-05T13:37:18.626Z,11.50
2022-11-05T13:40:07.315Z,11.50
2022-11-05T13:43:36.384Z,11.50
2022-11-05T13:46:43.166Z,11.50
2022-11-05T13:50:14.439Z,11.50
2022-11-05T13:53:39.693Z,11.40
2022-11-05T13:57:26.413Z,11.40
2022-11-05T14:00:17.875Z,11.40
2022-11-05T14:03:15.611Z,11.60
2022-11-05T14:05:53.676Z,11.50
2022-11-05T14:08:29.987Z,11.30
2022-11-05T14:11:24.325Z,11.20
2022-11-05T14:14:16.003Z,11.20
2022-11-05T14:17:14.881Z,11.20
2022-11-05T14:20:04.633Z,11.20
2022-11-05T14:22:32.360Z,11.20
2022-11-05T14:25:24.375Z,11.10
2022-11-05T14:27:58.319Z,11.10
2022-11-05T14:30:49.018Z,11.10
2022-11-05T14:33:25.463Z,11.20
2022-11-05T14:36:30.655Z,11.10
2022-11-05T14:39:26.408Z,11.00
2022-11-05T14:42:15.147Z,11.00
2022-11-05T14:45:45.134Z,11.00
2022-11-05T14:48:48.003Z,11.00
2022-11-05T14:51:40.399Z,11.00
2022-11-05T14:54:54.254Z,10.90
2022-11-05T14:57:43.499Z,10.90
2022-11-05T15:00:30.331Z,10.80
2022-11-05T15:03:31.145Z,10.80
2022-11-05T15:06:28.667Z,10.80
2022-11-05T15:09:29.100Z,10.70
2022-11-05T15:11:56.688Z,10.70
2022-11-05T15:14:56.035Z,10.80
2022-11-05T15:17:34.712Z,10.70
2022-11-05T15:20:23.747Z,10.80
2022-11-05T15:23:03.995Z,10.80
2022-11-05T15:26:02.925Z,10.70
2022-11-05T15:28:49.810Z,10.70
2022-11-05T15:31:37.888Z,10.60
2022-11-05T15:34:36.797Z,10.70
2022-11-05T15:37:27.590Z,10.70
2022-11-05T15:39:56.331Z,10.70
2022-11-05T15:42:27.894Z,10.60
2022-11-05T15:45:00.025Z,10.50
2022-11-05T15:47:36.642Z,10.40
2022-11-05T15:50:16.356Z,10.30
2022-11-05T15:52:55.473Z,10.10
2022-11-05T15:55:27.136Z,10.10
2022-11-05T15:58:09.599Z,10.00
2022-11-05T16:00:37.677Z,10.00
2022-11-05T16:03:34.871Z,9.90
2022-11-05T16:06:03.400Z,9.90
2022-11-05T16:08:32.179Z,9.90
2022-11-05T16:11:02.060Z,9.90
2022-11-05T16:13:41.501Z,10.10
2022-11-05T16:16:15.008Z,10.00
2022-11-05T16:18:45.759Z,10.10
2022-11-05T16:21:20.136Z,10.20
2022-11-05T16:24:00.655Z,10.20
2022-11-05T16:27:01.867Z,10.20
2022-11-05T16:29:50.436Z,10.30
2022-11-05T16:32:31.772Z,10.30
2022-11-05T16:35:16.330Z,10.40
2022-11-05T16:37:49.138Z,10.50
2022-11-05T16:40:25.854Z,10.50
2022-11-05T16:42:54.774Z,10.50
2022-11-05T16:45:25.509Z,10.40
2022-11-05T16:47:53.272Z,10.40
2022-11-05T16:50:32.982Z,10.30
2022-11-05T16:53:00.629Z,10.30
2022-11-05T16:55:29.798Z,10.20
2022-11-05T16:57:59.285Z,10.10
2022-11-05T17:00:27.026Z,10.10
2022-11-05T17:02:55.590Z,10.00
2022-11-05T17:05:31.575Z,10.00
2022-11-05T17:08:01.254Z,10.00
2022-11-05T17:10:28.985Z,9.90
2022-11-05T17:12:57.274Z,9.90
2022-11-05T17:15:33.725Z,9.80
2022-11-05T17:18:04.385Z,9.80
2022-11-05T17:20:46.122Z,9.90
2022-11-05T17:23:21.158Z,9.90
2022-11-05T17:25:58.955Z,10.10
2022-11-05T17:28:27.350Z,10.10
2022-11-05T17:30:56.440Z,10.10
2022-11-05T17:33:24.367Z,10.20
2022-11-05T17:35:53.848Z,10.40
2022-11-05T17:38:25.291Z,10.50
2022-11-05T17:40:54.175Z,10.50
2022-11-05T17:43:21.988Z,10.40
2022-11-05T17:45:53.255Z,10.40
2022-11-05T17:48:21.845Z,10.40
2022-11-05T17:50:51.322Z,10.40
2022-11-05T17:53:19.966Z,10.40
2022-11-05T17:55:48.418Z,10.40
2022-11-05T17:58:16.446Z,10.50
2022-11-05T18:00:47.799Z,10.40
2022-11-05T18:03:15.840Z,10.40
2022-11-05T18:05:44.142Z,10.40
2022-11-05T18:08:12.731Z,10.30
2022-11-05T18:10:42.244Z,10.30
2022-11-05T18:13:11.272Z,10.20
2022-11-05T18:15:41.468Z,10.20
2022-11-05T18:18:09.830Z,10.20
2022-11-05T18:20:39.078Z,10.30
2022-11-05T18:23:06.749Z,10.30
2022-11-05T18:25:34.513Z,10.30
2022-11-05T18:28:03.349Z,10.30
2022-11-05T18:30:31.036Z,10.30
2022-11-05T18:32:58.595Z,10.30
2022-11-05T18:35:26.665Z,10.40
2022-11-05T18:37:54.393Z,10.50
2022-11-05T18:40:22.759Z,10.40
2022-11-05T18:42:50.595Z,10.40
2022-11-05T18:45:18.255Z,10.40
2022-11-05T18:47:45.873Z,10.40
2022-11-05T18:50:14.874Z,10.40
2022-11-05T18:52:42.505Z,10.40
2022-11-05T18:55:10.437Z,10.40
2022-11-05T18:57:38.267Z,10.40
2022-11-05T19:00:07.700Z,10.50
2022-11-05T19:02:35.428Z,10.40
2022-11-05T19:07:51.578Z,10.30
2022-11-05T19:10:19.399Z,10.30
2022-11-05T19:12:47.078Z,10.30
2022-11-05T19:15:14.799Z,10.30
2022-11-05T19:17:42.714Z,10.30
2022-11-05T19:20:12.103Z,10.30
2022-11-05T19:22:39.758Z,10.30
2022-11-05T19:25:08.387Z,10.20
2022-11-05T19:27:38.695Z,10.30
2022-11-05T19:30:07.533Z,10.30
2022-11-05T19:32:35.209Z,10.40
2022-11-05T19:35:02.845Z,10.30
2022-11-05T19:37:30.396Z,10.20
2022-11-05T19:39:58.083Z,10.20
2022-11-05T19:42:26.969Z,10.10
2022-11-05T19:44:54.591Z,10.10
2022-11-05T19:47:22.776Z,10.00
2022-11-05T19:49:50.377Z,10.10
2022-11-05T19:52:18.133Z,10.10
2022-11-05T19:54:46.143Z,10.10
2022-11-05T19:57:13.935Z,10.10
2022-11-05T19:59:41.528Z,10.10
2022-11-05T20:02:16.022Z,10.10
2022-11-05T20:04:44.430Z,10.00
2022-11-05T20:07:12.012Z,10.00
2022-11-05T20:09:40.405Z,10.10
2022-11-05T20:12:08.170Z,10.00
2022-11-05T20:14:35.962Z,9.90
2022-11-05T20:17:03.846Z,10.00
2022-11-05T20:19:31.579Z,10.00
2022-11-05T20:22:02.398Z,10.00
2022-11-05T20:24:30.654Z,10.00
2022-11-05T20:26:58.888Z,9.90
2022-11-05T20:29:33.861Z,9.80
2022-11-05T20:32:04.903Z,9.90
2022-11-05T20:34:35.034Z,9.90
2022-11-05T20:37:02.882Z,10.00
2022-11-05T20:39:31.038Z,9.90
2022-11-05T20:42:00.562Z,9.90
2022-11-05T20:44:28.577Z,9.80
2022-11-05T20:46:56.932Z,9.70
2022-11-05T20:49:25.882Z,9.70
2022-11-05T20:51:54.552Z,9.70
2022-11-05T20:54:22.559Z,9.70
2022-11-05T20:56:50.430Z,9.80
2022-11-05T20:59:18.207Z,9.80
2022-11-05T21:01:46.034Z,9.70
2022-11-05T21:04:13.771Z,9.80
2022-11-05T21:06:41.376Z,9.80
2022-11-05T21:09:09.057Z,9.80
2022-11-05T21:11:56.540Z,9.70
2022-11-05T21:14:24.206Z,9.70
2022-11-05T21:16:51.910Z,9.60
2022-11-05T21:19:19.895Z,9.50
2022-11-05T21:21:47.902Z,9.50
2022-11-05T21:24:15.878Z,9.40
2022-11-05T21:26:43.449Z,9.50
2022-11-05T21:29:11.218Z,9.60
2022-11-05T21:31:39.905Z,9.70
2022-11-05T21:34:07.866Z,9.70
2022-11-05T21:36:35.731Z,9.70
2022-11-05T21:39:07.709Z,9.70
2022-11-05T21:41:38.954Z,9.60
2022-11-05T21:44:06.825Z,9.60
2022-11-05T21:46:34.508Z,9.70
2022-11-05T21:49:02.432Z,9.60
2022-11-05T21:51:48.421Z,9.50
2022-11-05T21:54:34.522Z,9.50
2022-11-05T21:57:21.321Z,9.50
2022-11-05T21:59:49.237Z,9.50
2022-11-05T22:02:24.011Z,9.50
2022-11-05T22:04:56.452Z,9.40
2022-11-05T22:07:34.662Z,9.30
2022-11-05T22:10:07.567Z,9.30
2022-11-05T22:12:37.123Z,9.20
2022-11-05T22:15:06.164Z,9.10
2022-11-05T22:17:33.871Z,9.10
2022-11-05T22:20:01.430Z,9.10
2022-11-05T22:22:29.722Z,9.00
2022-11-05T22:24:57.330Z,9.00
2022-11-05T22:27:24.912Z,9.00
2022-11-05T22:29:52.567Z,9.00
2022-11-05T22:32:20.181Z,9.10
2022-11-05T22:34:49.572Z,9.10
2022-11-05T22:37:17.437Z,9.20
2022-11-05T22:39:45.139Z,9.20
2022-11-05T22:42:12.851Z,9.20
2022-11-05T22:44:40.575Z,9.20
2022-11-05T22:47:08.297Z,9.10
2022-11-05T22:49:36.015Z,9.10
2022-11-05T22:52:03.873Z,9.00
2022-11-05T22:54:37.890Z,9.00
2022-11-05T22:57:06.949Z,9.00
2022-11-05T22:59:34.528Z,9.10
2022-11-05T23:02:08.251Z,9.20
2022-11-05T23:04:38.522Z,9.40
2022-11-05T23:07:27.805Z,9.40
2022-11-05T23:10:14.980Z,9.50
2022-11-05T23:12:44.479Z,9.50
2022-11-05T23:15:33.359Z,9.40
2022-11-05T23:18:19.801Z,9.60
2022-11-05T23:21:11.635Z,9.50
2022-11-05T23:23:57.754Z,9.50
2022-11-05T23:26:44.002Z,9.60
2022-11-05T23:29:11.588Z,9.50
2022-11-05T23:31:57.426Z,9.50
2022-11-05T23:34:25.231Z,9.50
2022-11-05T23:37:11.223Z,9.40
2022-11-05T23:39:42.581Z,9.20
2022-11-05T23:42:29.989Z,9.10
2022-11-05T23:45:16.701Z,9.10
2022-11-05T23:48:03.095Z,9.10
2022-11-05T23:50:37.118Z,9.10
2022-11-05T23:53:08.810Z,9.20
2022-11-05T23:55:37.182Z,9.20
2022-11-05T23:58:06.986Z,9.10
